Miami, Florida
Traffic Map
Current Weather Conditions
Miami, Florida
Scattered Clouds
Scattered Clouds
25°
Feels Like: 26°
Wind Chill: 25° Ceiling: Unl
Heat Index: 26° Visibility: 10mi
Dew Point: 20° Wind: 14mph
Humidity: 74% Direction: 80° (E)
Pressure: 30.31in Gusts: 37mph
Raw Report DataKMIA 212253Z 08012G32KT 10SM SCT028 25/20 A3031 RMK AO2 PK WND 09032/2244 SLP264 T02500200 $
Traffic Incident Summary
Active as of:
Severity:
Category:
InformationThere was an issue retrieving the traffic information for this location. Please try a different location or try again shortly.
Advertisements